Elleair Taio — 3EAU5 — position and weather

sailwx.info

Track history (hours):
 
Tides and Currents Weather Stations Pressure Air Temp Water Temp Dewpoint Dewpoint Depression Visibility Wind Speed Wind Dir Waves Ship Positions

Elleair Taio

Last reported at 2016-Mar-08 05:28 UTC. Time now 2016-Jul-25 22:06 UTC.
Position N 39°32' E 001°18'.
Warning: this ship's position is months out of date.

Type: Other ship. MMSI: 363654000.

Date/timePositionNaut miles runAvg speedWind from/ knotsBaromVisibWave heightAir tempDewpointWater temp
2016-Mar-08 05:28N 39°32' E 001°18'8 8.8
2016-Mar-08 04:32N 39°29' E 001°28'9 9.1
2016-Mar-08 03:33N 39°26' E 001°39'1010.2
2016-Mar-08 02:33N 39°22' E 001°51'1010.5
2016-Mar-08 01:33N 39°18' E 002°03'1010.2
2016-Mar-08 00:33N 39°14' E 002°15'1010.0
2016-Mar-07 23:33N 39°10' E 002°27'1010.0
2016-Mar-07 22:33N 39°06' E 002°39'1010.1
2016-Mar-07 21:33N 39°02' E 002°51'10 9.8
2016-Mar-07 20:33N 39°01' E 003°04'1010.0
2016-Mar-07 19:33N 39°02' E 003°16'10 9.9
2016-Mar-07 18:33N 39°02' E 003°29'11 9.8
2016-Mar-07 17:27N 39°03' E 003°43'425 9.0
2016-Mar-05 18:15N 38°28' E 012°46'6 8.0
2016-Mar-05 17:31N 38°27' E 012°53'7 6.9
2016-Mar-05 16:32N 38°27' E 013°02'6 6.4
2016-Mar-05 15:33N 38°26' E 013°10'6 6.1
2016-Mar-05 14:33N 38°26' E 013°18'7 7.3
2016-Mar-05 13:33N 38°25' E 013°27'8 8.3
2016-Mar-05 12:33N 38°25' E 013°37'8 8.1
2016-Mar-05 11:33N 38°24' E 013°48'8 8.0
2016-Mar-05 10:33N 38°23' E 013°58'43 8.6
2016-Mar-05 05:32N 38°20' E 014°53'9 8.9
2016-Mar-05 04:32N 38°20' E 015°04'10 9.1
2016-Mar-05 03:23N 38°20' E 015°17'7 8.9
2016-Mar-05 02:33N 38°20' E 015°27'9 9.0
2016-Mar-05 01:33N 38°19' E 015°38'6 5.7
2016-Mar-05 00:33N 38°14' E 015°37'10 9.5
2016-Mar-04 23:33N 38°04' E 015°37'10 9.5
2016-Mar-04 22:33N 37°55' E 015°34'10 9.8
2016-Mar-04 21:33N 37°46' E 015°31'10 9.0
2016-Mar-04 20:29N 37°36' E 015°27'17 0.4
2016-Mar-03 02:32N 37°39' E 015°48'9 8.8
2016-Mar-03 01:33N 37°45' E 015°56'  
2016-Feb-29 21:31N 41°42' E 018°48'8 7.3
2016-Feb-29 20:25N 41°48' E 018°41'6 6.9
2016-Feb-29 19:33N 41°52' E 018°35'7 6.7
2016-Feb-29 18:31N 41°57' E 018°28'7 7.2
2016-Feb-29 17:30N 42°02' E 018°21'7 6.9
2016-Feb-29 16:33N 42°06' E 018°15'6 6.2
2016-Feb-29 15:34N 42°11' E 018°09'6 6.2
2016-Feb-29 14:34N 42°15' E 018°03'7 6.6
2016-Feb-29 13:33N 42°20' E 017°57'6 6.4
2016-Feb-29 12:34N 42°24' E 017°50'252 5.8
2016-Feb-27 17:21N 44°58' E 013°14'8 9.5
2016-Feb-27 16:34N 45°05' E 013°09'10 9.5
2016-Feb-27 15:33N 45°13' E 013°03'10 9.5
2016-Feb-27 14:33N 45°23' E 013°03'  
Track history (hours):
 
Tides and Currents Weather Stations Pressure Air Temp Water Temp Dewpoint Dewpoint Depression Visibility Wind Speed Wind Dir Waves Ship Positions

Elleair Taio

Last reported at 2016-Mar-08 05:28 UTC. Time now 2016-Jul-25 22:06 UTC.
Position N 39°32' E 001°18'.
Warning: this ship's position is months out of date.

Type: Other ship. MMSI: 363654000.

Date/timePositionNaut miles runAvg speedWind from/ knotsBaromVisibWave heightAir tempDewpointWater temp
2016-Mar-08 05:28N 39°32' E 001°18'8 8.8
2016-Mar-08 04:32N 39°29' E 001°28'9 9.1
2016-Mar-08 03:33N 39°26' E 001°39'1010.2
2016-Mar-08 02:33N 39°22' E 001°51'1010.5
2016-Mar-08 01:33N 39°18' E 002°03'1010.2
2016-Mar-08 00:33N 39°14' E 002°15'1010.0
2016-Mar-07 23:33N 39°10' E 002°27'1010.0
2016-Mar-07 22:33N 39°06' E 002°39'1010.1
2016-Mar-07 21:33N 39°02' E 002°51'10 9.8
2016-Mar-07 20:33N 39°01' E 003°04'1010.0
2016-Mar-07 19:33N 39°02' E 003°16'10 9.9
2016-Mar-07 18:33N 39°02' E 003°29'11 9.8
2016-Mar-07 17:27N 39°03' E 003°43'425 9.0
2016-Mar-05 18:15N 38°28' E 012°46'6 8.0
2016-Mar-05 17:31N 38°27' E 012°53'7 6.9
2016-Mar-05 16:32N 38°27' E 013°02'6 6.4
2016-Mar-05 15:33N 38°26' E 013°10'6 6.1
2016-Mar-05 14:33N 38°26' E 013°18'7 7.3
2016-Mar-05 13:33N 38°25' E 013°27'8 8.3
2016-Mar-05 12:33N 38°25' E 013°37'8 8.1
2016-Mar-05 11:33N 38°24' E 013°48'8 8.0
2016-Mar-05 10:33N 38°23' E 013°58'43 8.6
2016-Mar-05 05:32N 38°20' E 014°53'9 8.9
2016-Mar-05 04:32N 38°20' E 015°04'10 9.1
2016-Mar-05 03:23N 38°20' E 015°17'7 8.9
2016-Mar-05 02:33N 38°20' E 015°27'9 9.0
2016-Mar-05 01:33N 38°19' E 015°38'6 5.7
2016-Mar-05 00:33N 38°14' E 015°37'10 9.5
2016-Mar-04 23:33N 38°04' E 015°37'10 9.5
2016-Mar-04 22:33N 37°55' E 015°34'10 9.8
2016-Mar-04 21:33N 37°46' E 015°31'10 9.0
2016-Mar-04 20:29N 37°36' E 015°27'17 0.4
2016-Mar-03 02:32N 37°39' E 015°48'9 8.8
2016-Mar-03 01:33N 37°45' E 015°56'  
2016-Feb-29 21:31N 41°42' E 018°48'8 7.3
2016-Feb-29 20:25N 41°48' E 018°41'6 6.9
2016-Feb-29 19:33N 41°52' E 018°35'7 6.7
2016-Feb-29 18:31N 41°57' E 018°28'7 7.2
2016-Feb-29 17:30N 42°02' E 018°21'7 6.9
2016-Feb-29 16:33N 42°06' E 018°15'6 6.2
2016-Feb-29 15:34N 42°11' E 018°09'6 6.2
2016-Feb-29 14:34N 42°15' E 018°03'7 6.6
2016-Feb-29 13:33N 42°20' E 017°57'6 6.4
2016-Feb-29 12:34N 42°24' E 017°50'252 5.8
2016-Feb-27 17:21N 44°58' E 013°14'8 9.5
2016-Feb-27 16:34N 45°05' E 013°09'10 9.5
2016-Feb-27 15:33N 45°13' E 013°03'10 9.5
2016-Feb-27 14:33N 45°23' E 013°03'  

Dump ship's entire track history